Time;durP1;ratioP1;P1;durP2;ratioP2;P2;SDS_P1;SDS_P2;PMS_P1;PMS_P2;Temp;Humidity;BMP_temperature;BMP_pressure;BME280_temperature;BME280_humidity;BME280_pressure;Samples;Min_cycle;Max_cycle;Signal;HPM_P1;HPM_P2
2022/09/29 00:04:30;;;;;;;3.47;1.45;;;;;;;-146.19;100.00;65364.44;10294107;28;20062;-61
2022/09/29 00:09:49;;;;;;;2.58;1.30;;;;;;;-146.19;100.00;65364.44;10297497;28;20055;-61
2022/09/29 00:15:09;;;;;;;2.50;1.23;;;;;;;-146.19;100.00;65364.44;10321054;28;20049;-61
2022/09/29 00:20:28;;;;;;;1.80;1.25;;;;;;;-146.19;100.00;65364.44;10297115;28;20396;-60
2022/09/29 00:25:48;;;;;;;2.33;1.40;;;;;;;-146.19;100.00;65364.44;10284427;28;20051;-61
2022/09/29 00:31:08;;;;;;;2.65;1.20;;;;;;;-146.19;100.00;65364.44;10295646;28;20129;-61
2022/09/29 00:36:28;;;;;;;1.80;1.20;;;;;;;-146.19;100.00;65364.44;10294587;28;20055;-60
2022/09/29 00:41:48;;;;;;;2.28;1.50;;;;;;;-146.19;100.00;65364.44;10317464;28;20050;-60
2022/09/29 00:47:09;;;;;;;1.80;1.33;;;;;;;-146.19;100.00;65364.44;10327037;28;20420;-61
2022/09/29 00:52:36;;;;;;;2.17;1.20;;;;;;;-146.19;100.00;65364.44;10334949;28;20413;-60
2022/09/29 00:57:57;;;;;;;1.38;1.20;;;;;;;-146.19;100.00;65364.44;10342949;28;20512;-61
2022/09/29 01:03:19;;;;;;;1.95;1.30;;;;;;;-146.19;100.00;65364.44;10347086;28;20046;-60
2022/09/29 01:08:50;;;;;;;1.92;1.30;;;;;;;-146.19;100.00;65364.44;10333840;28;20058;-61
2022/09/29 01:14:10;;;;;;;1.30;1.10;;;;;;;-146.19;100.00;65364.44;10285931;28;20050;-61
2022/09/29 01:20:12;;;;;;;2.35;1.38;;;;;;;-146.19;100.00;65364.44;10331886;28;20060;-61
2022/09/29 01:25:40;;;;;;;1.63;1.20;;;;;;;-146.19;100.00;65364.44;10340728;28;20490;-61
2022/09/29 01:31:14;;;;;;;1.63;1.10;;;;;;;-146.19;100.00;65364.44;10331049;28;20050;-61
2022/09/29 01:36:34;;;;;;;2.03;1.13;;;;;;;-146.19;100.00;65364.44;10330168;28;20464;-61
2022/09/29 01:42:05;;;;;;;2.28;1.25;;;;;;;-146.19;100.00;65364.44;10311803;28;20046;-61
2022/09/29 01:47:34;;;;;;;1.27;1.10;;;;;;;-146.19;100.00;65364.44;10332787;28;20058;-61
2022/09/29 01:52:59;;;;;;;2.80;1.15;;;;;;;-146.19;100.00;65364.44;10291767;28;20054;-60
2022/09/29 01:58:26;;;;;;;1.50;1.10;;;;;;;-146.19;100.00;65364.44;10312988;28;20046;-61
2022/09/29 02:03:51;;;;;;;1.20;0.90;;;;;;;-146.19;100.00;65364.44;10316520;28;20054;-61
2022/09/29 02:09:22;;;;;;;1.42;1.20;;;;;;;-146.19;100.00;65364.44;10316355;28;20042;-60
2022/09/29 02:14:45;;;;;;;1.50;1.02;;;;;;;-146.19;100.00;65364.44;10330062;28;20046;-61
2022/09/29 02:20:05;;;;;;;1.30;1.10;;;;;;;-146.19;100.00;65364.44;10279415;28;20065;-61
2022/09/29 02:25:24;;;;;;;2.10;1.15;;;;;;;-146.19;100.00;65364.44;10284988;28;20050;-61
2022/09/29 02:30:44;;;;;;;1.83;1.20;;;;;;;-146.19;100.00;65364.44;10292808;28;20058;-60
2022/09/29 02:36:41;;;;;;;1.10;1.00;;;;;;;-146.19;100.00;65364.44;10293270;28;20078;-61
2022/09/29 02:42:25;;;;;;;1.75;0.90;;;;;;;-146.19;100.00;65364.44;10306002;28;20054;-61
2022/09/29 02:48:03;;;;;;;1.23;1.10;;;;;;;-146.19;100.00;65364.44;10339001;28;20062;-60
2022/09/29 02:53:32;;;;;;;;;;;;;;;-146.19;100.00;65364.44;10299634;28;20054;-61
2022/09/29 02:58:59;;;;;;;0.98;0.88;;;;;;;-146.19;100.00;65364.44;10326779;28;19969;-61
2022/09/29 03:04:21;;;;;;;1.58;0.90;;;;;;;-146.19;100.00;65364.44;10299888;28;20422;-60
2022/09/29 03:09:40;;;;;;;1.02;0.80;;;;;;;-146.19;100.00;65364.44;10299354;28;20055;-61
2022/09/29 03:15:00;;;;;;;1.70;1.00;;;;;;;-146.19;100.00;65364.44;10313354;28;20054;-61
2022/09/29 03:20:20;;;;;;;0.98;0.80;;;;;;;-146.19;100.00;65364.44;10323010;28;20494;-61
2022/09/29 03:25:40;;;;;;;0.80;0.80;;;;;;;-146.19;100.00;65364.44;10310995;28;20106;-60
2022/09/29 03:31:05;;;;;;;1.15;0.90;;;;;;;-146.19;100.00;65364.44;10301105;28;20101;-61
2022/09/29 03:36:24;;;;;;;1.75;0.90;;;;;;;-146.19;100.00;65364.44;10304164;28;20082;-61
2022/09/29 03:41:44;;;;;;;1.42;0.98;;;;;;;-146.19;100.00;65364.44;10310779;28;20097;-61
2022/09/29 03:47:03;;;;;;;1.00;0.80;;;;;;;-146.19;100.00;65364.44;10305439;28;20043;-60
2022/09/29 03:52:23;;;;;;;1.10;1.00;;;;;;;-146.19;100.00;65364.44;10297718;28;20051;-60
2022/09/29 03:57:43;;;;;;;0.65;0.63;;;;;;;-146.19;100.00;65364.44;10296751;28;20062;-61
2022/09/29 04:03:02;;;;;;;0.80;0.70;;;;;;;-146.19;100.00;65364.44;10300903;28;20065;-61
2022/09/29 04:08:22;;;;;;;1.90;1.10;;;;;;;-146.19;100.00;65364.44;10311876;28;20050;-61
2022/09/29 04:13:41;;;;;;;1.42;1.10;;;;;;;-146.19;100.00;65364.44;10309030;28;20499;-61
2022/09/29 04:19:01;;;;;;;0.93;0.80;;;;;;;-146.19;100.00;65364.44;10295881;28;20058;-60
2022/09/29 04:24:20;;;;;;;1.85;0.95;;;;;;;-146.19;100.00;65364.44;10296420;28;20054;-61
2022/09/29 04:29:39;;;;;;;1.23;0.85;;;;;;;-146.19;100.00;65364.44;10295516;28;20050;-60
2022/09/29 04:34:58;;;;;;;0.88;0.82;;;;;;;-146.19;100.00;65364.44;10293122;28;20043;-61
2022/09/29 04:40:18;;;;;;;0.93;0.80;;;;;;;-146.19;100.00;65364.44;10300802;28;20101;-60
2022/09/29 04:45:37;;;;;;;1.23;0.90;;;;;;;-146.19;100.00;65364.44;10297831;28;20054;-60
2022/09/29 04:50:57;;;;;;;1.27;0.98;;;;;;;-146.19;100.00;65364.44;10301243;28;20067;-60
2022/09/29 04:56:17;;;;;;;1.50;1.10;;;;;;;-146.19;100.00;65364.44;10311118;28;20046;-61
2022/09/29 05:01:37;;;;;;;2.40;1.00;;;;;;;-146.19;100.00;65364.44;10295008;28;20137;-61
2022/09/29 05:06:56;;;;;;;3.03;1.77;;;;;;;-146.19;100.00;65364.44;10296007;28;20069;-59
2022/09/29 05:12:16;;;;;;;8.95;2.20;;;;;;;-146.19;100.00;65364.44;10295135;28;20453;-60
2022/09/29 05:17:35;;;;;;;13.45;2.67;;;;;;;-146.19;100.00;65364.44;10301935;28;20047;-60
2022/09/29 05:22:56;;;;;;;7.40;2.90;;;;;;;-146.19;100.00;65364.44;10288141;28;20388;-59
2022/09/29 05:28:16;;;;;;;8.95;2.70;;;;;;;-146.19;100.00;65364.44;10285331;28;20051;-59
2022/09/29 05:33:36;;;;;;;6.57;2.38;;;;;;;-146.19;100.00;65364.44;10292549;28;20050;-60
2022/09/29 05:38:55;;;;;;;6.80;2.50;;;;;;;-146.19;100.00;65364.44;10304550;28;20136;-59
2022/09/29 05:44:15;;;;;;;8.63;2.60;;;;;;;-146.19;100.00;65364.44;10289692;28;20062;-60
2022/09/29 05:49:35;;;;;;;7.13;2.33;;;;;;;-146.19;100.00;65364.44;10291865;28;20067;-60
2022/09/29 05:54:55;;;;;;;7.18;2.42;;;;;;;-146.19;100.00;65364.44;10292956;28;20167;-60
2022/09/29 06:00:15;;;;;;;3.90;2.20;;;;;;;-146.19;100.00;65364.44;10293828;28;20128;-61
2022/09/29 06:05:37;;;;;;;4.65;2.50;;;;;;;-146.19;100.00;65364.44;10299590;28;20410;-60
2022/09/29 06:11:04;;;;;;;4.18;2.47;;;;;;;-146.19;100.00;65364.44;10292454;28;20061;-60
2022/09/29 06:16:28;;;;;;;4.97;2.33;;;;;;;-146.19;100.00;65364.44;10305312;28;20051;-61
2022/09/29 06:21:47;;;;;;;5.40;2.38;;;;;;;-146.19;100.00;65364.44;10292052;28;20059;-60
2022/09/29 06:27:07;;;;;;;3.75;2.05;;;;;;;-146.19;100.00;65364.44;10301201;28;20402;-60
2022/09/29 06:32:26;;;;;;;5.57;2.05;;;;;;;-146.19;100.00;65364.44;10292049;28;20054;-60
2022/09/29 06:37:45;;;;;;;4.38;2.20;;;;;;;-146.19;100.00;65364.44;10294736;28;20051;-60
2022/09/29 06:43:05;;;;;;;4.63;2.10;;;;;;;-146.19;100.00;65364.44;10273542;28;20055;-59
2022/09/29 06:48:25;;;;;;;4.35;2.45;;;;;;;-146.19;100.00;65364.44;10303381;28;20063;-57
2022/09/29 06:53:45;;;;;;;3.92;2.20;;;;;;;-146.19;100.00;65364.44;10288267;28;20101;-61
2022/09/29 06:59:05;;;;;;;3.00;1.92;;;;;;;-146.19;100.00;65364.44;10291424;28;20051;-60
2022/09/29 07:04:25;;;;;;;4.60;2.08;;;;;;;-146.19;100.00;65364.44;10297610;28;20498;-61
2022/09/29 07:09:44;;;;;;;4.30;2.25;;;;;;;-146.19;100.00;65364.44;10294189;28;20130;-59
2022/09/29 07:15:04;;;;;;;3.13;2.03;;;;;;;-146.19;100.00;65364.44;10291106;28;20057;-60
2022/09/29 07:20:28;;;;;;;5.00;2.22;;;;;;;-146.19;100.00;65364.44;10292257;28;20514;-60
2022/09/29 07:25:47;;;;;;;3.95;2.13;;;;;;;-146.19;100.00;65364.44;10294580;28;20043;-59
2022/09/29 07:31:13;;;;;;;4.63;2.97;;;;;;;-146.19;100.00;65364.44;10296927;28;20059;-60
2022/09/29 07:36:32;;;;;;;5.35;4.85;;;;;;;-146.19;100.00;65364.44;10310935;28;20542;-60
2022/09/29 07:41:54;;;;;;;5.35;2.40;;;;;;;-146.19;100.00;65364.44;10299254;28;20131;-56
2022/09/29 07:47:13;;;;;;;3.17;2.85;;;;;;;-146.19;100.00;65364.44;10307535;28;20054;-60
2022/09/29 07:52:33;;;;;;;4.82;2.83;;;;;;;-146.19;100.00;65364.44;10299489;28;21140;-60
2022/09/29 07:57:53;;;;;;;3.25;2.60;;;;;;;-146.19;100.00;65364.44;10298411;28;20055;-59
2022/09/29 08:03:12;;;;;;;3.03;2.50;;;;;;;-146.19;100.00;65364.44;10310855;28;20414;-60
2022/09/29 08:08:35;;;;;;;4.82;2.75;;;;;;;-146.19;100.00;65364.44;10310659;28;20109;-60
2022/09/29 08:13:55;;;;;;;2.85;2.40;;;;;;;-146.19;100.00;65364.44;10296677;28;20142;-61
2022/09/29 08:19:14;;;;;;;3.45;2.60;;;;;;;-146.19;100.00;65364.44;10310810;28;20047;-60
2022/09/29 08:24:35;;;;;;;7.47;3.55;;;;;;;-146.19;100.00;65364.44;10298028;28;20050;-61
2022/09/29 08:29:56;;;;;;;7.65;3.40;;;;;;;-146.19;100.00;65364.44;10299026;28;20057;-61
2022/09/29 08:35:16;;;;;;;10.77;4.57;;;;;;;-146.19;100.00;65364.44;10312114;28;20043;-60
2022/09/29 08:40:35;;;;;;;18.58;5.30;;;;;;;-146.19;100.00;65364.44;10285730;28;20490;-61
2022/09/29 08:46:01;;;;;;;13.68;6.45;;;;;;;-146.19;100.00;65364.44;10288574;28;20486;-60
2022/09/29 08:51:38;;;;;;;23.38;9.80;;;;;;;-146.19;100.00;65364.44;10293326;28;20066;-60
2022/09/29 08:56:59;;;;;;;16.73;5.78;;;;;;;-146.19;100.00;65364.44;10278943;28;20157;-61
2022/09/29 09:02:26;;;;;;;13.63;5.18;;;;;;;-146.19;100.00;65364.44;10292398;28;20089;-61
2022/09/29 09:08:10;;;;;;;12.43;5.63;;;;;;;-146.19;100.00;65364.44;10315202;28;20449;-61
2022/09/29 09:14:03;;;;;;;14.52;5.05;;;;;;;-146.19;100.00;65364.44;10297446;28;20058;-61
2022/09/29 09:19:37;;;;;;;10.57;4.78;;;;;;;-146.19;100.00;65364.44;10293491;28;20676;-61
2022/09/29 09:25:00;;;;;;;13.15;4.82;;;;;;;-146.19;100.00;65364.44;10298772;28;20141;-61
2022/09/29 09:30:20;;;;;;;6.20;3.70;;;;;;;-146.19;100.00;65364.44;10296191;28;20050;-61
2022/09/29 09:35:49;;;;;;;10.43;3.95;;;;;;;-146.19;100.00;65364.44;10266961;28;20061;-60
2022/09/29 09:41:09;;;;;;;9.32;4.25;;;;;;;-146.19;100.00;65364.44;10296258;28;20410;-61
2022/09/29 09:46:32;;;;;;;7.97;3.88;;;;;;;-146.19;100.00;65364.44;10293980;28;20395;-60
2022/09/29 09:51:57;;;;;;;9.60;4.20;;;;;;;-146.19;100.00;65364.44;10294100;28;20391;-62
2022/09/29 09:57:42;;;;;;;9.13;3.92;;;;;;;-146.19;100.00;65364.44;10288039;28;20085;-61
2022/09/29 10:03:04;;;;;;;7.80;3.80;;;;;;;-146.19;100.00;65364.44;10285894;28;20492;-60
2022/09/29 10:08:24;;;;;;;5.80;3.40;;;;;;;-146.19;100.00;65364.44;10292689;28;20062;-61
2022/09/29 10:13:45;;;;;;;7.82;3.60;;;;;;;-146.19;100.00;65364.44;10294685;28;20525;-60
2022/09/29 10:19:05;;;;;;;7.47;3.90;;;;;;;-146.19;100.00;65364.44;10293548;28;20402;-60
2022/09/29 10:24:32;;;;;;;8.88;4.28;;;;;;;-146.19;100.00;65364.44;10291627;28;20106;-60
2022/09/29 10:29:53;;;;;;;6.82;3.20;;;;;;;-146.19;100.00;65364.44;10316738;28;20065;-60
2022/09/29 10:35:16;;;;;;;8.68;3.40;;;;;;;-146.19;100.00;65364.44;10305424;28;20054;-60
2022/09/29 10:40:35;;;;;;;6.03;3.17;;;;;;;-146.19;100.00;65364.44;10305405;28;20055;-61
2022/09/29 10:45:57;;;;;;;5.45;3.10;;;;;;;-146.19;100.00;65364.44;10310733;28;20046;-61
2022/09/29 10:51:21;;;;;;;5.25;3.50;;;;;;;-146.19;100.00;65364.44;10311616;28;20503;-61
2022/09/29 10:56:48;;;;;;;5.85;3.08;;;;;;;-146.19;100.00;65364.44;10282366;28;20057;-60
2022/09/29 11:02:17;;;;;;;5.57;2.88;;;;;;;-146.19;100.00;65364.44;10301765;28;20074;-60
2022/09/29 11:07:43;;;;;;;5.90;3.08;;;;;;;-146.19;100.00;65364.44;10281492;28;20047;-61
2022/09/29 11:13:33;;;;;;;6.20;3.03;;;;;;;-146.19;100.00;65364.44;10284894;28;20133;-61
2022/09/29 11:18:57;;;;;;;5.80;3.28;;;;;;;-146.19;100.00;65364.44;10307224;28;20403;-61
2022/09/29 11:24:22;;;;;;;5.50;3.15;;;;;;;-146.19;100.00;65364.44;10295401;28;20058;-60
2022/09/29 11:30:02;;;;;;;5.63;3.03;;;;;;;-146.19;100.00;65364.44;10298341;28;20109;-60
2022/09/29 11:35:28;;;;;;;7.40;3.00;;;;;;;-146.19;100.00;65364.44;10304590;28;20051;-60
2022/09/29 11:40:57;;;;;;;5.55;2.80;;;;;;;-146.19;100.00;65364.44;10311138;28;20039;-61
2022/09/29 11:46:22;;;;;;;7.05;3.10;;;;;;;-146.19;100.00;65364.44;10298258;28;20054;-61
2022/09/29 11:51:54;;;;;;;4.65;2.80;;;;;;;-146.19;100.00;65364.44;10297193;28;20113;-60
2022/09/29 11:57:31;;;;;;;7.03;3.00;;;;;;;-146.19;100.00;65364.44;10310737;28;20391;-60
2022/09/29 12:03:18;;;;;;;4.90;3.03;;;;;;;-146.19;100.00;65364.44;10288544;28;20054;-61
2022/09/29 12:09:13;;;;;;;6.38;2.70;;;;;;;-146.19;100.00;65364.44;10304764;28;20043;-60
2022/09/29 12:15:12;;;;;;;4.93;3.13;;;;;;;-146.19;100.00;65364.44;10282646;28;20058;-60
2022/09/29 12:20:33;;;;;;;;;;;;;;;-146.19;100.00;65364.44;10290608;28;20054;-61
2022/09/29 12:25:56;;;;;;;9.07;3.58;;;;;;;-146.19;100.00;65364.44;10282192;28;19922;-57
2022/09/29 12:31:20;;;;;;;10.45;4.13;;;;;;;-146.19;100.00;65364.44;10307502;28;20101;-60
2022/09/29 12:37:09;;;;;;;12.30;3.97;;;;;;;-146.19;100.00;65364.44;10280910;28;20509;-61
2022/09/29 12:42:54;;;;;;;9.18;3.97;;;;;;;-146.19;100.00;65364.44;10284328;28;20058;-62
2022/09/29 12:48:31;;;;;;;10.82;4.10;;;;;;;-146.19;100.00;65364.44;10305842;28;20506;-61
2022/09/29 12:54:05;;;;;;;10.05;4.00;;;;;;;-146.19;100.00;65364.44;10309678;28;20058;-61
2022/09/29 12:59:40;;;;;;;10.75;4.60;;;;;;;-146.19;100.00;65364.44;10296144;28;20057;-62
2022/09/29 13:05:25;;;;;;;8.25;3.70;;;;;;;-146.19;100.00;65364.44;10294882;28;20461;-61
2022/09/29 13:11:22;;;;;;;10.35;3.95;;;;;;;-146.19;100.00;65364.44;10291221;28;20055;-62
2022/09/29 13:17:04;;;;;;;9.57;3.88;;;;;;;-146.19;100.00;65364.44;10287799;28;20057;-62
2022/09/29 13:22:42;;;;;;;7.35;3.03;;;;;;;-146.19;100.00;65364.44;10290407;28;20062;-60
2022/09/29 13:28:24;;;;;;;7.35;2.95;;;;;;;-146.19;100.00;65364.44;10293403;28;20054;-62
2022/09/29 13:33:53;;;;;;;5.30;2.50;;;;;;;-146.19;100.00;65364.44;10293786;28;20081;-61
2022/09/29 13:39:20;;;;;;;;;;;;;;;-146.19;100.00;65364.44;10328613;28;20050;-61
2022/09/29 13:44:40;;;;;;;5.00;2.72;;;;;;;-146.19;100.00;65364.44;10304558;28;20298;-62
2022/09/29 13:50:39;;;;;;;6.38;2.58;;;;;;;-146.19;100.00;65364.44;10292721;28;20062;-61
2022/09/29 13:56:04;;;;;;;4.78;2.28;;;;;;;-146.19;100.00;65364.44;10308237;28;20055;-61
2022/09/29 14:01:34;;;;;;;3.40;2.13;;;;;;;-146.19;100.00;65364.44;10302951;28;20086;-61
2022/09/29 14:06:57;;;;;;;3.95;1.95;;;;;;;-146.19;100.00;65364.44;10273331;28;20051;-61
2022/09/29 14:12:23;;;;;;;4.88;1.88;;;;;;;-146.19;100.00;65364.44;10294735;28;20486;-61
2022/09/29 14:17:50;;;;;;;4.60;2.00;;;;;;;-146.19;100.00;65364.44;10291867;28;20054;-61
2022/09/29 14:23:10;;;;;;;3.55;2.00;;;;;;;-146.19;100.00;65364.44;10292139;28;20117;-61
2022/09/29 14:28:38;;;;;;;4.63;1.90;;;;;;;-146.19;100.00;65364.44;10304820;28;20479;-61
2022/09/29 14:34:01;;;;;;;2.63;1.50;;;;;;;-146.19;100.00;65364.44;10305284;28;20043;-61
2022/09/29 14:39:21;;;;;;;2.60;1.70;;;;;;;-146.19;100.00;65364.44;10277826;28;20125;-61
2022/09/29 14:56:44;;;;;;;2.65;1.63;;;;;;;-146.19;100.00;65364.44;10277933;28;20407;-61
2022/09/29 15:02:10;;;;;;;2.90;1.25;;;;;;;-146.19;100.00;65364.44;10305223;28;20052;-62
2022/09/29 15:07:40;;;;;;;3.92;1.35;;;;;;;-146.19;100.00;65364.44;10308438;28;20055;-62
2022/09/29 15:13:30;;;;;;;3.00;1.52;;;;;;;-146.19;100.00;65364.44;10280581;28;20097;-60
2022/09/29 15:19:13;;;;;;;2.90;1.50;;;;;;;-146.19;100.00;65364.44;10289522;28;20058;-61
2022/09/29 15:24:48;;;;;;;3.95;1.55;;;;;;;-146.19;100.00;65364.44;10309458;28;20046;-59
2022/09/29 15:30:16;;;;;;;6.05;1.85;;;;;;;-146.19;100.00;65364.44;10288106;28;20525;-61
2022/09/29 15:35:39;;;;;;;5.90;1.70;;;;;;;-146.19;100.00;65364.44;10301656;28;20077;-59
2022/09/29 15:41:15;;;;;;;5.88;1.60;;;;;;;-146.19;100.00;65364.44;10276417;28;20433;-59
2022/09/29 15:46:47;;;;;;;3.65;1.70;;;;;;;-146.19;100.00;65364.44;10297668;28;20129;-60
2022/09/29 15:52:13;;;;;;;1.95;1.70;;;;;;;-146.19;100.00;65364.44;10301746;28;20533;-61
2022/09/29 15:57:49;;;;;;;3.47;1.50;;;;;;;-146.19;100.00;65364.44;10303774;28;20557;-60
2022/09/29 16:03:13;;;;;;;3.33;1.60;;;;;;;-146.19;100.00;65364.44;10303467;28;20522;-60
2022/09/29 16:08:36;;;;;;;3.70;1.80;;;;;;;-146.19;100.00;65364.44;10296289;28;20065;-60
2022/09/29 16:14:17;;;;;;;3.50;1.70;;;;;;;-146.19;100.00;65364.44;10301292;28;20039;-60
2022/09/29 16:19:40;;;;;;;3.45;1.42;;;;;;;-146.19;100.00;65364.44;10298492;28;20113;-58
2022/09/29 16:25:21;;;;;;;3.28;1.90;;;;;;;-146.19;100.00;65364.44;10303132;28;20099;-60
2022/09/29 16:31:02;;;;;;;4.50;1.67;;;;;;;-146.19;100.00;65364.44;10305157;28;20407;-60
2022/09/29 16:36:23;;;;;;;2.15;1.58;;;;;;;-146.19;100.00;65364.44;10279697;28;20117;-60
2022/09/29 16:41:47;;;;;;;1.90;1.40;;;;;;;-146.19;100.00;65364.44;10281758;28;20062;-61
2022/09/29 16:47:12;;;;;;;2.45;1.45;;;;;;;-146.19;100.00;65364.44;10295742;28;20124;-59
2022/09/29 16:52:48;;;;;;;4.35;1.40;;;;;;;-146.19;100.00;65364.44;10295235;28;20062;-58
2022/09/29 16:58:10;;;;;;;2.58;1.60;;;;;;;-146.19;100.00;65364.44;10287265;28;20062;-60
2022/09/29 17:03:29;;;;;;;2.33;1.40;;;;;;;-146.19;100.00;65364.44;10296480;28;20059;-60
2022/09/29 17:08:49;;;;;;;2.58;1.30;;;;;;;-146.19;100.00;65364.44;10302783;28;20047;-61
2022/09/29 17:14:12;;;;;;;2.30;1.30;;;;;;;-146.19;100.00;65364.44;10302358;28;20104;-60
2022/09/29 17:19:31;;;;;;;2.55;1.52;;;;;;;-146.19;100.00;65364.44;10309077;28;20082;-61
2022/09/29 17:24:51;;;;;;;3.42;1.40;;;;;;;-146.19;100.00;65364.44;10287603;28;20051;-60
2022/09/29 17:30:16;;;;;;;2.75;1.60;;;;;;;-146.19;100.00;65364.44;10293909;28;20508;-60
2022/09/29 17:35:38;;;;;;;2.25;1.48;;;;;;;-146.19;100.00;65364.44;10309565;28;20085;-60
2022/09/29 17:41:02;;;;;;;2.50;1.30;;;;;;;-146.19;100.00;65364.44;10294030;28;20058;-60
2022/09/29 17:46:22;;;;;;;2.08;1.50;;;;;;;-146.19;100.00;65364.44;10306591;28;20054;-60
2022/09/29 17:51:41;;;;;;;2.53;1.50;;;;;;;-146.19;100.00;65364.44;10283642;28;20141;-60
2022/09/29 17:57:01;;;;;;;2.22;1.70;;;;;;;-146.19;100.00;65364.44;10292722;28;20503;-60
2022/09/29 18:02:21;;;;;;;6.90;5.05;;;;;;;-146.19;100.00;65364.44;10316831;28;20072;-60
2022/09/29 18:07:41;;;;;;;5.05;3.03;;;;;;;-146.19;100.00;65364.44;10293657;28;20047;-59
2022/09/29 18:13:00;;;;;;;4.32;3.25;;;;;;;-146.19;100.00;65364.44;10297133;28;20380;-58
2022/09/29 18:18:21;;;;;;;4.45;3.05;;;;;;;-146.19;100.00;65364.44;10315669;28;20046;-57
2022/09/29 18:23:41;;;;;;;4.70;2.97;;;;;;;-146.19;100.00;65364.44;10304306;28;20039;-58
2022/09/29 18:29:16;;;;;;;4.28;3.33;;;;;;;-146.19;100.00;65364.44;10309746;28;20077;-60
2022/09/29 18:34:35;;;;;;;3.83;3.30;;;;;;;-146.19;100.00;65364.44;10313066;28;20096;-58
2022/09/29 18:39:55;;;;;;;4.47;3.08;;;;;;;-146.19;100.00;65364.44;10324954;28;20073;-60
2022/09/29 18:45:21;;;;;;;5.00;3.47;;;;;;;-146.19;100.00;65364.44;10307572;28;20061;-59
2022/09/29 18:50:43;;;;;;;3.22;2.90;;;;;;;-146.19;100.00;65364.44;10314381;28;20503;-60
2022/09/29 18:56:03;;;;;;;3.50;2.92;;;;;;;-146.19;100.00;65364.44;10329740;28;20057;-60
2022/09/29 19:01:26;;;;;;;4.97;3.10;;;;;;;-146.19;100.00;65364.44;10326354;28;20050;-58
2022/09/29 19:06:45;;;;;;;5.47;3.08;;;;;;;-146.19;100.00;65364.44;10324138;28;20058;-58
2022/09/29 19:12:05;;;;;;;6.10;2.80;;;;;;;-146.19;100.00;65364.44;10343722;28;20049;-59
2022/09/29 19:17:26;;;;;;;5.47;2.97;;;;;;;-146.19;100.00;65364.44;10329913;28;20046;-58
2022/09/29 19:22:45;;;;;;;4.38;3.03;;;;;;;-146.19;100.00;65364.44;10286966;28;20571;-58
2022/09/29 19:28:05;;;;;;;7.13;3.30;;;;;;;-146.19;100.00;65364.44;10300334;28;20129;-56
2022/09/29 19:33:25;;;;;;;5.57;2.97;;;;;;;-146.19;100.00;65364.44;10344028;28;20055;-58
2022/09/29 19:38:46;;;;;;;4.50;2.97;;;;;;;-146.19;100.00;65364.44;10295865;28;20057;-56
2022/09/29 19:44:07;;;;;;;6.22;3.00;;;;;;;-146.19;100.00;65364.44;10298724;28;20057;-59
2022/09/29 19:49:27;;;;;;;4.35;3.05;;;;;;;-146.19;100.00;65364.44;10298564;28;20067;-59
2022/09/29 19:54:47;;;;;;;3.78;2.88;;;;;;;-146.19;100.00;65364.44;10297244;28;20499;-60
2022/09/29 20:00:11;;;;;;;5.20;2.72;;;;;;;-146.19;100.00;65364.44;10299372;28;20078;-58
2022/09/29 20:05:33;;;;;;;3.25;2.53;;;;;;;-146.19;100.00;65364.44;10307229;28;20058;-59
2022/09/29 20:10:53;;;;;;;3.90;2.80;;;;;;;-146.19;100.00;65364.44;10310006;28;20206;-58
2022/09/29 20:16:13;;;;;;;3.67;2.75;;;;;;;-146.19;100.00;65364.44;10297456;28;20073;-59
2022/09/29 20:21:32;;;;;;;5.10;2.67;;;;;;;-146.19;100.00;65364.44;10329825;28;20133;-58
2022/09/29 20:26:56;;;;;;;4.28;2.65;;;;;;;-146.19;100.00;65364.44;10317877;28;20051;-60
2022/09/29 20:32:18;;;;;;;5.63;2.70;;;;;;;-146.19;100.00;65364.44;10299865;28;20050;-58
2022/09/29 20:37:39;;;;;;;4.43;2.47;;;;;;;-146.19;100.00;65364.44;10284943;28;20443;-57
2022/09/29 20:42:58;;;;;;;4.53;2.47;;;;;;;-146.19;100.00;65364.44;10310546;28;20503;-59
2022/09/29 20:48:17;;;;;;;2.95;2.45;;;;;;;-146.19;100.00;65364.44;10296506;28;20042;-60
2022/09/29 20:53:39;;;;;;;3.60;2.55;;;;;;;-146.19;100.00;65364.44;10297290;28;20108;-61
2022/09/29 20:58:59;;;;;;;4.40;2.45;;;;;;;-146.19;100.00;65364.44;10288765;28;20399;-61
2022/09/29 21:04:19;;;;;;;3.45;2.50;;;;;;;-146.19;100.00;65364.44;10298338;28;20082;-60
2022/09/29 21:09:39;;;;;;;4.50;2.72;;;;;;;-146.19;100.00;65364.44;10309984;28;20055;-61
2022/09/29 21:14:58;;;;;;;3.65;2.53;;;;;;;-146.19;100.00;65364.44;10282393;28;20055;-60
2022/09/29 21:20:18;;;;;;;2.92;2.28;;;;;;;-146.19;100.00;65364.44;10295492;28;20189;-60
2022/09/29 21:25:38;;;;;;;2.92;2.25;;;;;;;-146.19;100.00;65364.44;10298572;28;20073;-60
2022/09/29 21:31:02;;;;;;;4.00;2.40;;;;;;;-146.19;100.00;65364.44;10294964;28;20055;-60
2022/09/29 21:36:24;;;;;;;6.45;2.40;;;;;;;-146.19;100.00;65364.44;10297887;28;20049;-60
2022/09/29 21:41:44;;;;;;;3.50;2.40;;;;;;;-146.19;100.00;65364.44;10294654;28;20422;-60
2022/09/29 21:47:04;;;;;;;2.70;2.38;;;;;;;-146.19;100.00;65364.44;10307773;28;20050;-60
2022/09/29 21:52:23;;;;;;;3.33;2.42;;;;;;;-146.19;100.00;65364.44;10284716;28;20138;-60
2022/09/29 21:57:42;;;;;;;2.38;2.10;;;;;;;-146.19;100.00;65364.44;10293285;28;20491;-60
2022/09/29 22:03:02;;;;;;;2.58;2.38;;;;;;;-146.19;100.00;65364.44;10306650;28;20039;-60
2022/09/29 22:08:24;;;;;;;2.40;2.20;;;;;;;-146.19;100.00;65364.44;10294292;28;20058;-60
2022/09/29 22:13:47;;;;;;;2.55;2.35;;;;;;;-146.19;100.00;65364.44;10305618;28;20116;-60
2022/09/29 22:19:07;;;;;;;2.65;2.13;;;;;;;-146.19;100.00;65364.44;10292585;28;20065;-60
2022/09/29 22:24:27;;;;;;;2.40;2.10;;;;;;;-146.19;100.00;65364.44;10298866;28;21010;-60
2022/09/29 22:29:46;;;;;;;2.90;2.20;;;;;;;-146.19;100.00;65364.44;10317897;28;20065;-60
2022/09/29 22:35:06;;;;;;;3.03;2.30;;;;;;;-146.19;100.00;65364.44;10330220;28;20042;-60
2022/09/29 22:40:26;;;;;;;3.38;2.20;;;;;;;-146.19;100.00;65364.44;10342455;28;20517;-61
2022/09/29 22:45:47;;;;;;;2.85;2.40;;;;;;;-146.19;100.00;65364.44;10318862;28;20055;-61
2022/09/29 22:51:06;;;;;;;2.20;2.00;;;;;;;-146.19;100.00;65364.44;10329186;28;20466;-60
2022/09/29 22:56:29;;;;;;;3.60;2.13;;;;;;;-146.19;100.00;65364.44;10330037;28;20050;-61
2022/09/29 23:01:48;;;;;;;2.38;2.15;;;;;;;-146.19;100.00;65364.44;10326821;28;20468;-59
2022/09/29 23:07:08;;;;;;;2.10;1.75;;;;;;;-146.19;100.00;65364.44;10322335;28;20050;-58
2022/09/29 23:12:27;;;;;;;2.50;2.03;;;;;;;-146.19;100.00;65364.44;10319011;28;20055;-60
2022/09/29 23:17:47;;;;;;;2.10;1.90;;;;;;;-146.19;100.00;65364.44;10299312;28;20058;-60
2022/09/29 23:23:06;;;;;;;2.00;1.80;;;;;;;-146.19;100.00;65364.44;10281373;28;20062;-61
2022/09/29 23:28:26;;;;;;;2.75;2.05;;;;;;;-146.19;100.00;65364.44;10299643;28;20129;-60
2022/09/29 23:33:54;;;;;;;2.35;1.85;;;;;;;-146.19;100.00;65364.44;10299303;28;20058;-61
2022/09/29 23:39:14;;;;;;;2.20;2.00;;;;;;;-146.19;100.00;65364.44;10286248;28;20502;-60
2022/09/29 23:44:35;;;;;;;2.42;1.95;;;;;;;-146.19;100.00;65364.44;10299141;28;20057;-58
2022/09/29 23:49:54;;;;;;;2.30;2.10;;;;;;;-146.19;100.00;65364.44;10298917;28;20069;-60
2022/09/29 23:55:13;;;;;;;2.30;1.95;;;;;;;-146.19;100.00;65364.44;10311182;28;20058;-57
